createdAt,value
2023-04-22T00:00:22.039Z,86.30
2023-04-22T00:02:53.036Z,85.50
2023-04-22T00:05:23.811Z,84.80
2023-04-22T00:07:55.964Z,84.70
2023-04-22T00:10:30.205Z,82.70
2023-04-22T00:13:00.834Z,81.90
2023-04-22T00:15:35.385Z,82.40
2023-04-22T00:18:06.399Z,83.00
2023-04-22T00:20:39.333Z,82.50
2023-04-22T00:23:16.852Z,82.40
2023-04-22T00:25:47.128Z,80.00
2023-04-22T00:28:18.878Z,79.70
2023-04-22T00:30:49.273Z,79.30
2023-04-22T00:33:19.462Z,78.70
2023-04-22T00:35:51.237Z,77.50
2023-04-22T00:38:27.917Z,77.70
2023-04-22T00:40:59.310Z,77.60
2023-04-22T00:43:30.777Z,76.90
2023-04-22T00:46:03.318Z,75.70
2023-04-22T00:48:34.524Z,76.30
2023-04-22T00:51:05.259Z,76.50
2023-04-22T00:53:36.229Z,74.70
2023-04-22T00:56:07.030Z,75.70
2023-04-22T00:58:37.412Z,74.30
2023-04-22T01:01:08.157Z,74.90
2023-04-22T01:03:41.330Z,74.60
2023-04-22T01:06:12.430Z,73.00
2023-04-22T01:08:44.201Z,73.30
2023-04-22T01:11:15.183Z,72.90
2023-04-22T01:13:45.977Z,71.90
2023-04-22T01:16:16.459Z,72.10
2023-04-22T01:18:46.682Z,72.70
2023-04-22T01:21:17.182Z,72.10
2023-04-22T01:23:47.465Z,71.30
2023-04-22T01:26:17.981Z,71.70
2023-04-22T01:28:48.452Z,71.90
2023-04-22T01:31:18.882Z,71.70
2023-04-22T01:33:50.030Z,70.60
2023-04-22T01:36:20.492Z,68.80
2023-04-22T01:38:50.763Z,69.60
2023-04-22T01:41:21.862Z,69.80
2023-04-22T01:43:52.669Z,69.20
2023-04-22T01:46:23.536Z,69.70
2023-04-22T01:48:54.002Z,69.40
2023-04-22T01:51:25.309Z,69.60
2023-04-22T01:53:55.766Z,69.80
2023-04-22T01:56:26.049Z,68.90
2023-04-22T01:58:56.311Z,68.40
2023-04-22T02:01:27.053Z,68.50
2023-04-22T02:03:58.106Z,69.20
2023-04-22T02:06:29.437Z,69.70
2023-04-22T02:09:00.286Z,70.00
2023-04-22T02:11:30.757Z,68.10
2023-04-22T02:14:01.327Z,68.20
2023-04-22T02:16:32.448Z,69.10
2023-04-22T02:19:02.797Z,68.30
2023-04-22T02:21:36.804Z,66.30
2023-04-22T02:24:07.532Z,66.60
2023-04-22T02:26:37.780Z,66.00
2023-04-22T02:29:08.125Z,67.80
2023-04-22T02:31:38.798Z,66.30
2023-04-22T02:34:09.481Z,65.20
2023-04-22T02:36:39.757Z,64.80
2023-04-22T02:39:10.274Z,65.20
2023-04-22T02:41:40.661Z,65.90
2023-04-22T02:44:11.092Z,66.50
2023-04-22T02:46:41.404Z,67.30
2023-04-22T02:49:11.783Z,67.00
2023-04-22T02:51:42.166Z,66.40
2023-04-22T02:54:12.703Z,68.60
2023-04-22T02:56:42.884Z,65.80
2023-04-22T02:59:13.196Z,64.60
2023-04-22T03:01:43.497Z,64.80
2023-04-22T03:04:15.953Z,65.30
2023-04-22T03:06:46.305Z,64.70
2023-04-22T03:09:17.137Z,63.90
2023-04-22T03:11:47.881Z,64.40
2023-04-22T03:14:18.730Z,63.50
2023-04-22T03:16:49.083Z,63.40
2023-04-22T03:19:19.860Z,62.70
2023-04-22T03:21:51.228Z,63.50
2023-04-22T03:24:21.972Z,63.70
2023-04-22T03:26:52.275Z,63.50
2023-04-22T03:29:22.482Z,64.40
2023-04-22T03:31:54.745Z,63.40
2023-04-22T03:34:25.017Z,63.30
2023-04-22T03:36:55.398Z,63.70
2023-04-22T03:39:26.667Z,63.80
2023-04-22T03:41:57.188Z,63.70
2023-04-22T03:44:27.953Z,62.90
2023-04-22T03:46:58.254Z,63.40
2023-04-22T03:49:29.725Z,62.30
2023-04-22T03:52:01.491Z,62.10
2023-04-22T03:54:31.875Z,61.50
2023-04-22T03:57:02.468Z,61.80
2023-04-22T03:59:32.810Z,62.70
2023-04-22T04:02:03.187Z,61.50
2023-04-22T04:04:34.345Z,61.70
2023-04-22T04:07:05.212Z,62.30
2023-04-22T04:09:35.587Z,61.90
2023-04-22T04:12:05.891Z,62.50
2023-04-22T04:14:36.251Z,62.60
2023-04-22T04:17:07.101Z,59.80
2023-04-22T04:19:38.618Z,59.40
2023-04-22T04:22:09.285Z,61.10
2023-04-22T04:24:43.503Z,61.50
2023-04-22T04:27:14.203Z,60.40
2023-04-22T04:29:44.490Z,60.90
2023-04-22T04:32:15.845Z,61.10
2023-04-22T04:34:46.070Z,60.60
2023-04-22T04:37:16.475Z,60.30
2023-04-22T04:39:46.758Z,59.80
2023-04-22T04:42:16.984Z,57.50
2023-04-22T04:44:49.073Z,58.60
2023-04-22T04:47:19.390Z,58.60
2023-04-22T04:49:49.620Z,60.20
2023-04-22T04:52:20.331Z,59.80
2023-04-22T04:54:50.546Z,61.20
2023-04-22T04:57:20.781Z,61.70
2023-04-22T04:59:50.996Z,60.40
2023-04-22T05:02:21.465Z,61.60
2023-04-22T05:04:52.007Z,61.50
2023-04-22T05:07:23.130Z,60.50
2023-04-22T05:09:53.380Z,61.20
2023-04-22T05:12:23.606Z,60.90
2023-04-22T05:14:53.796Z,61.60
2023-04-22T05:17:24.140Z,60.70
2023-04-22T05:19:54.374Z,60.30
2023-04-22T05:22:25.504Z,59.70
2023-04-22T05:24:55.758Z,59.80
2023-04-22T05:27:26.025Z,60.10
2023-04-22T05:29:56.181Z,60.90
2023-04-22T05:32:26.444Z,60.00
2023-04-22T05:34:56.756Z,59.60
2023-04-22T05:37:27.061Z,59.70
2023-04-22T05:39:57.629Z,59.90
2023-04-22T05:42:27.963Z,60.40
2023-04-22T05:44:58.317Z,60.10
2023-04-22T05:47:28.586Z,60.30
2023-04-22T05:49:58.945Z,61.10
2023-04-22T05:52:29.184Z,60.60
2023-04-22T05:54:59.395Z,61.00
2023-04-22T05:57:29.717Z,62.20
2023-04-22T06:00:00.977Z,61.50
2023-04-22T06:02:31.506Z,61.40
2023-04-22T06:05:02.164Z,61.90
2023-04-22T06:07:33.946Z,61.90
2023-04-22T06:10:05.469Z,62.40
2023-04-22T06:12:36.594Z,62.60
2023-04-22T06:15:08.162Z,62.60
2023-04-22T06:17:39.918Z,62.30
2023-04-22T06:20:10.798Z,62.80
2023-04-22T06:22:40.995Z,61.80
2023-04-22T06:25:11.428Z,61.90
2023-04-22T06:27:42.146Z,61.90
2023-04-22T06:30:13.696Z,61.90
2023-04-22T06:32:44.026Z,62.70
2023-04-22T06:35:14.331Z,62.20
2023-04-22T06:37:44.615Z,62.10
2023-04-22T06:40:16.205Z,62.80
2023-04-22T06:42:46.462Z,62.50
2023-04-22T06:45:16.715Z,63.50
2023-04-22T06:47:47.016Z,63.40
2023-04-22T06:50:17.709Z,62.80
2023-04-22T06:52:48.303Z,63.60
2023-04-22T06:55:18.598Z,63.60
2023-04-22T06:57:48.945Z,64.30
2023-04-22T07:00:19.585Z,64.20
2023-04-22T07:02:50.119Z,64.30
2023-04-22T07:05:20.484Z,65.30
2023-04-22T07:07:50.964Z,65.40
2023-04-22T07:10:21.375Z,64.50
2023-04-22T07:12:53.897Z,64.60
2023-04-22T07:15:24.389Z,65.50
2023-04-22T07:17:57.569Z,66.10
2023-04-22T07:20:27.996Z,66.70
2023-04-22T07:22:58.725Z,67.00
2023-04-22T07:25:29.497Z,68.00
2023-04-22T07:28:01.156Z,68.60
2023-04-22T07:30:32.875Z,69.40
2023-04-22T07:33:05.111Z,71.00
2023-04-22T07:35:35.985Z,72.30
2023-04-22T07:38:07.395Z,72.60
2023-04-22T07:40:42.477Z,72.70
2023-04-22T07:43:13.274Z,73.40
2023-04-22T07:45:44.902Z,73.20
2023-04-22T07:48:15.554Z,74.40
2023-04-22T07:50:46.161Z,74.50
2023-04-22T07:53:18.036Z,74.50
2023-04-22T07:55:48.908Z,74.50
2023-04-22T07:58:20.401Z,75.50
2023-04-22T08:00:51.096Z,74.70
2023-04-22T08:03:23.860Z,75.70
2023-04-22T08:05:54.932Z,75.70
2023-04-22T08:08:30.496Z,76.80
2023-04-22T08:11:05.080Z,77.40
2023-04-22T08:16:29.078Z,77.80
2023-04-22T08:19:00.046Z,77.60
2023-04-22T08:21:30.433Z,78.10
2023-04-22T08:24:01.242Z,78.30
2023-04-22T08:26:32.395Z,78.90
2023-04-22T08:29:03.607Z,78.70
2023-04-22T08:31:33.897Z,79.10
2023-04-22T08:34:04.649Z,79.40
2023-04-22T08:36:35.596Z,79.60
2023-04-22T08:39:07.136Z,81.80
2023-04-22T08:41:39.299Z,81.30
2023-04-22T08:44:10.751Z,81.50
2023-04-22T08:46:41.950Z,81.80
2023-04-22T08:49:14.079Z,81.90
2023-04-22T08:51:46.431Z,81.50
2023-04-22T08:54:21.013Z,81.70
2023-04-22T08:56:54.160Z,82.10
2023-04-22T08:59:27.511Z,82.10
2023-04-22T09:02:00.431Z,82.40
2023-04-22T09:04:31.847Z,83.00
2023-04-22T09:07:04.506Z,83.00
2023-04-22T09:09:34.935Z,83.70
2023-04-22T09:12:05.630Z,83.70
2023-04-22T09:14:37.286Z,84.80
2023-04-22T09:17:11.715Z,84.30
2023-04-22T09:19:42.423Z,84.60
2023-04-22T09:22:16.830Z,85.40
2023-04-22T09:24:56.139Z,86.20
2023-04-22T09:27:34.984Z,85.80
2023-04-22T09:30:12.506Z,85.40
2023-04-22T09:32:43.499Z,85.30
2023-04-22T09:35:13.899Z,85.70
2023-04-22T09:37:49.362Z,86.60
2023-04-22T09:40:22.314Z,87.30
2023-04-22T09:42:55.089Z,87.10
2023-04-22T09:45:40.684Z,87.00
2023-04-22T09:48:13.413Z,86.90
2023-04-22T09:50:48.045Z,87.30
2023-04-22T09:53:21.059Z,86.50
2023-04-22T09:55:57.829Z,86.10
2023-04-22T09:58:33.864Z,86.90
2023-04-22T10:01:05.617Z,87.20
2023-04-22T10:03:36.437Z,87.60
2023-04-22T10:06:07.619Z,88.20
2023-04-22T10:08:39.246Z,88.50
2023-04-22T10:11:10.399Z,89.20
2023-04-22T10:13:41.484Z,87.90
2023-04-22T10:16:12.351Z,87.40
2023-04-22T10:18:43.845Z,87.40
2023-04-22T10:21:15.415Z,88.40
2023-04-22T10:23:51.744Z,88.70
2023-04-22T10:26:58.699Z,88.20
2023-04-22T10:29:39.068Z,87.70
2023-04-22T10:32:28.268Z,87.70
2023-04-22T10:35:16.936Z,88.60
2023-04-22T10:37:52.098Z,88.80
2023-04-22T10:40:28.318Z,88.50
2023-04-22T10:43:05.603Z,88.90
2023-04-22T10:45:39.958Z,89.10
2023-04-22T10:48:13.205Z,89.30
2023-04-22T10:50:45.537Z,90.00
2023-04-22T10:53:39.532Z,89.70
2023-04-22T10:56:22.845Z,89.70
2023-04-22T10:58:53.531Z,90.00
2023-04-22T11:01:24.227Z,90.60
2023-04-22T11:03:54.944Z,90.10
2023-04-22T11:06:30.459Z,90.00
2023-04-22T11:09:19.146Z,90.00
2023-04-22T11:11:53.126Z,90.00
2023-04-22T11:14:27.574Z,90.60
2023-04-22T11:17:01.180Z,90.20
2023-04-22T11:19:31.882Z,90.20
2023-04-22T11:22:07.863Z,90.50
2023-04-22T11:24:42.186Z,90.40
2023-04-22T11:27:19.478Z,90.50
2023-04-22T11:30:13.501Z,90.20
2023-04-22T11:32:46.981Z,90.10
2023-04-22T11:35:24.486Z,90.30
2023-04-22T11:38:00.433Z,90.40
2023-04-22T11:40:42.249Z,90.30
2023-04-22T11:43:15.987Z,90.30
2023-04-22T11:45:51.784Z,90.40
2023-04-22T11:48:22.878Z,91.10
2023-04-22T11:51:09.324Z,90.80
2023-04-22T11:53:44.729Z,90.50
2023-04-22T11:56:17.535Z,90.90
2023-04-22T11:58:48.517Z,90.60
2023-04-22T12:01:22.412Z,90.80
2023-04-22T12:04:03.511Z,90.90
2023-04-22T12:06:34.618Z,90.70
2023-04-22T12:09:05.783Z,90.90
2023-04-22T12:11:36.558Z,91.00
2023-04-22T12:14:11.729Z,90.90
2023-04-22T12:16:44.715Z,91.20
2023-04-22T12:19:19.930Z,90.90
2023-04-22T12:21:52.678Z,90.90
2023-04-22T12:24:29.626Z,91.50
2023-04-22T12:27:00.726Z,90.90
2023-04-22T12:29:36.548Z,91.20
2023-04-22T12:32:12.038Z,91.70
2023-04-22T12:34:47.366Z,91.80
2023-04-22T12:37:21.636Z,91.70
2023-04-22T12:39:53.774Z,91.80
2023-04-22T12:42:27.265Z,91.40
2023-04-22T12:45:00.141Z,91.20
2023-04-22T12:47:31.087Z,91.30
2023-04-22T12:50:08.528Z,91.80
2023-04-22T12:52:38.814Z,91.90
2023-04-22T12:55:09.560Z,91.30
2023-04-22T12:57:39.830Z,91.90
2023-04-22T13:00:16.021Z,91.70
2023-04-22T13:02:48.528Z,91.70
2023-04-22T13:05:20.895Z,91.90
2023-04-22T13:08:05.857Z,91.40
2023-04-22T13:10:38.636Z,91.50
2023-04-22T13:13:18.419Z,91.60
2023-04-22T13:15:54.907Z,91.50
2023-04-22T13:18:30.178Z,91.60
2023-04-22T13:21:05.747Z,91.30
2023-04-22T13:23:36.960Z,91.70
2023-04-22T13:26:07.496Z,92.00
2023-04-22T13:28:37.728Z,91.30
2023-04-22T13:31:08.162Z,91.80
2023-04-22T13:33:38.349Z,91.80
2023-04-22T13:36:08.703Z,91.50
2023-04-22T13:38:38.997Z,91.70
2023-04-22T13:41:09.233Z,91.70
2023-04-22T13:43:39.616Z,91.60
2023-04-22T13:46:10.241Z,91.70
2023-04-22T13:48:40.559Z,91.80
2023-04-22T13:51:10.826Z,91.90
2023-04-22T13:53:41.203Z,92.00
2023-04-22T13:56:11.922Z,92.10
2023-04-22T13:58:44.748Z,91.80
2023-04-22T14:01:15.013Z,91.80
2023-04-22T14:03:46.055Z,91.80
2023-04-22T14:06:18.230Z,92.20
2023-04-22T14:08:48.799Z,91.70
2023-04-22T14:11:19.165Z,91.60
2023-04-22T14:13:49.710Z,92.00
2023-04-22T14:16:21.343Z,91.90
2023-04-22T14:18:51.571Z,91.60
2023-04-22T14:21:22.150Z,92.10
2023-04-22T14:23:52.490Z,91.60
2023-04-22T14:26:22.893Z,91.70
2023-04-22T14:28:53.113Z,91.60
2023-04-22T14:31:23.483Z,92.00
2023-04-22T14:33:54.330Z,91.90
2023-04-22T14:36:24.670Z,92.40
2023-04-22T14:38:55.428Z,92.30
2023-04-22T14:41:26.434Z,91.80
2023-04-22T14:43:56.793Z,92.00
2023-04-22T14:46:27.540Z,92.40
2023-04-22T14:48:58.274Z,92.10
2023-04-22T14:51:32.107Z,92.10
2023-04-22T14:54:02.851Z,92.30
2023-04-22T14:56:33.127Z,91.90
2023-04-22T14:59:03.432Z,92.00
2023-04-22T15:01:35.260Z,92.30
2023-04-22T15:04:05.590Z,92.00
2023-04-22T15:06:35.883Z,92.10
2023-04-22T15:09:06.569Z,92.20
2023-04-22T15:11:37.323Z,92.40
2023-04-22T15:14:08.026Z,92.20
2023-04-22T15:16:38.897Z,92.10
2023-04-22T15:19:09.106Z,92.80
2023-04-22T15:21:39.280Z,92.00
2023-04-22T15:24:09.575Z,92.80
2023-04-22T15:26:41.401Z,92.50
2023-04-22T15:29:11.757Z,92.30
2023-04-22T15:31:42.035Z,92.40
2023-04-22T15:34:12.404Z,92.00
2023-04-22T15:36:43.161Z,92.10
2023-04-22T15:39:13.558Z,91.90
2023-04-22T15:41:45.123Z,91.80
2023-04-22T15:44:17.761Z,91.90
2023-04-22T15:46:48.418Z,92.30
2023-04-22T15:49:19.159Z,92.30
2023-04-22T15:51:49.974Z,91.90
2023-04-22T15:54:20.646Z,92.20
2023-04-22T15:56:51.337Z,92.40
2023-04-22T15:59:21.953Z,92.20
2023-04-22T16:01:53.077Z,91.90
2023-04-22T16:04:24.027Z,91.70
2023-04-22T16:06:54.541Z,91.90
2023-04-22T16:09:25.119Z,92.50
2023-04-22T16:11:57.578Z,92.20
2023-04-22T16:14:27.750Z,92.40
2023-04-22T16:16:58.335Z,92.70
2023-04-22T16:19:29.154Z,92.40
2023-04-22T16:21:59.426Z,91.90
2023-04-22T16:24:29.632Z,91.90
2023-04-22T16:27:00.054Z,92.40
2023-04-22T16:29:30.452Z,92.50
2023-04-22T16:32:02.111Z,92.40
2023-04-22T16:34:33.382Z,92.20
2023-04-22T16:37:03.844Z,91.90
2023-04-22T16:39:34.534Z,92.60
2023-04-22T16:42:05.116Z,92.10
2023-04-22T16:44:35.547Z,92.10
2023-04-22T16:47:06.051Z,92.50
2023-04-22T16:49:37.740Z,91.90
2023-04-22T16:52:09.371Z,92.00
2023-04-22T16:54:39.628Z,92.50
2023-04-22T16:57:10.619Z,92.20
2023-04-22T16:59:43.313Z,92.20
2023-04-22T17:02:14.217Z,91.80
2023-04-22T17:04:45.052Z,92.10
2023-04-22T17:07:15.891Z,92.10
2023-04-22T17:09:46.698Z,91.90
2023-04-22T17:12:17.187Z,92.30
2023-04-22T17:14:47.937Z,92.40
2023-04-22T17:17:18.428Z,92.30
2023-04-22T17:19:48.722Z,92.60
2023-04-22T17:22:19.046Z,92.30
2023-04-22T17:24:49.320Z,92.70
2023-04-22T17:27:19.777Z,92.30
2023-04-22T17:29:50.439Z,93.00
2023-04-22T17:32:20.723Z,92.70
2023-04-22T17:34:50.978Z,92.70
2023-04-22T17:37:21.309Z,92.70
2023-04-22T17:39:51.860Z,92.40
2023-04-22T17:42:23.777Z,92.50
2023-04-22T17:44:58.000Z,92.20
2023-04-22T17:47:28.542Z,92.80
2023-04-22T17:49:59.432Z,93.20
2023-04-22T17:52:30.026Z,92.50
2023-04-22T17:55:00.256Z,93.10
2023-04-22T17:57:30.553Z,93.20
2023-04-22T18:00:00.881Z,92.20
2023-04-22T18:02:31.331Z,92.30
2023-04-22T18:05:02.598Z,93.00
2023-04-22T18:07:32.832Z,92.50
2023-04-22T18:10:03.559Z,93.20
2023-04-22T18:12:34.666Z,92.90
2023-04-22T18:15:05.307Z,92.40
2023-04-22T18:17:36.225Z,92.30
2023-04-22T18:20:17.560Z,92.50
2023-04-22T18:22:50.532Z,92.60
2023-04-22T18:25:21.152Z,92.40
2023-04-22T18:27:56.914Z,92.90
2023-04-22T18:30:28.691Z,92.50
2023-04-22T18:32:59.959Z,92.50
2023-04-22T18:35:30.865Z,93.00
2023-04-22T18:38:01.906Z,92.70
2023-04-22T18:40:32.526Z,93.20
2023-04-22T18:43:03.223Z,93.30
2023-04-22T18:45:33.553Z,93.00
2023-04-22T18:48:03.850Z,93.00
2023-04-22T18:50:34.199Z,93.20
2023-04-22T18:53:04.806Z,92.80
2023-04-22T18:55:35.517Z,92.90
2023-04-22T18:58:06.399Z,93.30
2023-04-22T19:00:37.102Z,93.40
2023-04-22T19:03:09.145Z,92.90
2023-04-22T19:05:40.948Z,92.90
2023-04-22T19:08:11.611Z,93.00
2023-04-22T19:10:42.128Z,93.10
2023-04-22T19:13:28.467Z,92.90
2023-04-22T19:16:00.178Z,93.00
2023-04-22T19:18:32.021Z,92.50
2023-04-22T19:21:03.991Z,92.60
2023-04-22T19:23:34.295Z,93.30
2023-04-22T19:26:04.785Z,92.90
2023-04-22T19:28:35.354Z,93.00
2023-04-22T19:31:09.550Z,92.20
2023-04-22T19:33:40.143Z,93.30
2023-04-22T19:36:10.816Z,92.60
2023-04-22T19:38:42.285Z,93.30
2023-04-22T19:41:13.829Z,93.70
2023-04-22T19:43:45.106Z,92.50
2023-04-22T19:46:16.766Z,92.50
2023-04-22T19:48:49.129Z,93.10
2023-04-22T19:51:20.391Z,92.60
2023-04-22T19:53:52.213Z,92.70
2023-04-22T19:56:22.651Z,92.60
2023-04-22T19:58:54.129Z,93.20
2023-04-22T20:01:24.547Z,93.20
2023-04-22T20:03:55.136Z,92.40
2023-04-22T20:06:25.674Z,92.70
2023-04-22T20:08:57.460Z,93.10
2023-04-22T20:11:28.347Z,92.60
2023-04-22T20:14:00.397Z,92.70
2023-04-22T20:16:32.146Z,92.60
2023-04-22T20:19:02.950Z,92.80
2023-04-22T20:21:34.227Z,93.20
2023-04-22T20:24:06.274Z,93.00
2023-04-22T20:26:36.744Z,92.70
2023-04-22T20:29:09.604Z,92.70
2023-04-22T20:31:41.832Z,92.90
2023-04-22T20:34:12.760Z,92.90
2023-04-22T20:36:43.694Z,92.70
2023-04-22T20:39:16.720Z,92.60
2023-04-22T20:41:47.943Z,92.70
2023-04-22T20:44:18.349Z,93.00
2023-04-22T20:46:48.935Z,93.10
2023-04-22T20:49:19.834Z,93.50
2023-04-22T20:51:50.185Z,93.50
2023-04-22T20:54:29.081Z,93.20
2023-04-22T20:57:00.581Z,92.80
2023-04-22T20:59:31.581Z,93.40
2023-04-22T21:02:03.513Z,93.80
2023-04-22T21:04:35.918Z,94.00
2023-04-22T21:07:11.448Z,94.00
2023-04-22T21:09:42.763Z,94.40
2023-04-22T21:12:14.011Z,95.10
2023-04-22T21:14:45.982Z,95.20
2023-04-22T21:17:33.775Z,96.10
2023-04-22T21:20:07.404Z,95.60
2023-04-22T21:22:39.031Z,95.70
2023-04-22T21:25:10.857Z,95.10
2023-04-22T21:27:41.426Z,94.70
2023-04-22T21:30:12.624Z,94.20
2023-04-22T21:32:44.289Z,94.80
2023-04-22T21:35:15.084Z,94.60
2023-04-22T21:37:46.985Z,94.60
2023-04-22T21:40:17.938Z,94.50
2023-04-22T21:42:49.370Z,94.50
2023-04-22T21:45:20.209Z,94.60
2023-04-22T21:47:50.551Z,94.70
2023-04-22T21:50:22.387Z,94.80
2023-04-22T21:52:53.271Z,94.80
2023-04-22T21:55:25.142Z,94.80
2023-04-22T21:58:26.756Z,94.60
2023-04-22T22:01:19.208Z,94.50
2023-04-22T22:03:49.623Z,94.50
2023-04-22T22:06:20.136Z,94.50
2023-04-22T22:08:50.824Z,94.40
2023-04-22T22:11:30.311Z,94.30
2023-04-22T22:14:03.453Z,94.10
2023-04-22T22:16:35.299Z,94.10
2023-04-22T22:19:06.816Z,94.10
2023-04-22T22:21:38.153Z,94.10
2023-04-22T22:24:11.350Z,93.60
2023-04-22T22:26:43.242Z,93.40
2023-04-22T22:29:17.530Z,93.20
2023-04-22T22:31:49.393Z,93.10
2023-04-22T22:34:20.136Z,93.10
2023-04-22T22:36:51.222Z,93.20
2023-04-22T22:39:22.143Z,92.70
2023-04-22T22:41:52.803Z,92.80
2023-04-22T22:44:23.460Z,92.60
2023-04-22T22:46:53.686Z,92.70
2023-04-22T22:49:24.429Z,92.30
2023-04-22T22:51:55.031Z,92.50
2023-04-22T22:54:25.644Z,92.20
2023-04-22T22:56:59.938Z,92.30
2023-04-22T22:59:30.840Z,92.10
2023-04-22T23:02:04.696Z,92.00
2023-04-22T23:04:35.899Z,91.20
2023-04-22T23:07:07.076Z,91.10
2023-04-22T23:09:37.563Z,90.30
2023-04-22T23:12:08.906Z,90.80
2023-04-22T23:14:40.508Z,90.50
2023-04-22T23:17:11.170Z,90.20
2023-04-22T23:19:43.029Z,89.30
2023-04-22T23:22:16.984Z,88.40
2023-04-22T23:24:48.789Z,88.10
2023-04-22T23:27:20.019Z,88.00
2023-04-22T23:29:50.757Z,86.90
2023-04-22T23:32:23.881Z,87.30
2023-04-22T23:34:56.622Z,86.10
2023-04-22T23:37:31.524Z,86.90
2023-04-22T23:40:02.510Z,87.40
2023-04-22T23:42:33.123Z,88.40
2023-04-22T23:45:04.901Z,88.50
2023-04-22T23:47:36.133Z,88.60
2023-04-22T23:50:06.792Z,88.00
2023-04-22T23:52:42.582Z,87.80
2023-04-22T23:55:17.615Z,87.70
2023-04-22T23:57:48.105Z,87.10
